createdAt,value
2018-12-03T00:00:05.803Z,91.625977
2018-12-03T00:00:12.522Z,91.625977
2018-12-03T00:00:19.224Z,91.729736
2018-12-03T00:00:25.937Z,91.827393
2018-12-03T00:00:32.632Z,91.827393
2018-12-03T00:00:39.315Z,91.931152
2018-12-03T00:00:46.080Z,91.931152
2018-12-03T00:00:52.815Z,92.034912
2018-12-03T00:00:59.529Z,92.034912
2018-12-03T00:01:06.222Z,92.138672
2018-12-03T00:01:12.984Z,92.138672
2018-12-03T00:01:20.723Z,92.034912
2018-12-03T00:01:27.396Z,91.931152
2018-12-03T00:01:34.145Z,91.931152
2018-12-03T00:01:40.878Z,91.931152
2018-12-03T00:01:47.629Z,91.827393
2018-12-03T00:01:54.312Z,91.827393
2018-12-03T00:02:01.018Z,91.827393
2018-12-03T00:02:07.730Z,91.827393
2018-12-03T00:02:14.459Z,91.729736
2018-12-03T00:02:21.889Z,91.827393
2018-12-03T00:02:28.623Z,91.827393
2018-12-03T00:02:35.387Z,91.729736
2018-12-03T00:02:43.078Z,91.729736
2018-12-03T00:02:49.776Z,91.729736
2018-12-03T00:02:56.502Z,91.729736
2018-12-03T00:03:03.238Z,91.729736
2018-12-03T00:03:09.953Z,91.625977
2018-12-03T00:03:16.713Z,91.625977
2018-12-03T00:03:23.440Z,91.625977
2018-12-03T00:03:30.203Z,91.522217
2018-12-03T00:03:36.980Z,91.418457
2018-12-03T00:03:43.730Z,91.418457
2018-12-03T00:03:50.447Z,91.314697
2018-12-03T00:03:57.139Z,91.314697
2018-12-03T00:04:03.817Z,91.217041
2018-12-03T00:04:10.538Z,91.217041
2018-12-03T00:04:17.268Z,91.217041
2018-12-03T00:04:23.974Z,91.217041
2018-12-03T00:04:30.752Z,91.314697
2018-12-03T00:04:37.890Z,91.314697
2018-12-03T00:04:44.176Z,91.217041
2018-12-03T00:04:50.842Z,91.217041
2018-12-03T00:04:57.575Z,91.314697
2018-12-03T00:05:04.243Z,91.314697
2018-12-03T00:05:10.952Z,91.314697
2018-12-03T00:05:17.661Z,91.418457
2018-12-03T00:05:24.429Z,91.522217
2018-12-03T00:05:31.175Z,91.522217
2018-12-03T00:05:37.830Z,91.522217
2018-12-03T00:05:44.512Z,91.522217
2018-12-03T00:05:52.296Z,91.418457
2018-12-03T00:05:59.003Z,91.314697
2018-12-03T00:06:05.714Z,91.217041
2018-12-03T00:06:13.441Z,91.217041
2018-12-03T00:06:20.239Z,91.217041
2018-12-03T00:06:27.003Z,91.314697
2018-12-03T00:06:33.772Z,91.314697
2018-12-03T00:06:41.458Z,91.418457
2018-12-03T00:06:48.283Z,91.418457
2018-12-03T00:06:54.976Z,91.418457
2018-12-03T00:07:01.670Z,91.418457
2018-12-03T00:07:08.380Z,91.418457
2018-12-03T00:07:15.079Z,91.522217
2018-12-03T00:07:21.794Z,91.522217
2018-12-03T00:07:29.461Z,91.625977
2018-12-03T00:07:36.118Z,91.827393
2018-12-03T00:07:42.889Z,91.931152
2018-12-03T00:07:49.592Z,92.034912
2018-12-03T00:07:56.309Z,92.034912
2018-12-03T00:08:03.075Z,92.138672
2018-12-03T00:08:09.762Z,92.138672
2018-12-03T00:08:16.430Z,92.138672
2018-12-03T00:08:23.200Z,92.236328
2018-12-03T00:08:29.961Z,92.236328
2018-12-03T00:08:36.631Z,92.340088
2018-12-03T00:08:43.309Z,92.340088
2018-12-03T00:08:50.019Z,92.340088
2018-12-03T00:08:56.780Z,92.340088
2018-12-03T00:09:04.505Z,92.236328
2018-12-03T00:09:11.227Z,92.236328
2018-12-03T00:09:17.990Z,92.236328
2018-12-03T00:09:25.683Z,92.236328
2018-12-03T00:09:32.415Z,92.138672
2018-12-03T00:09:39.816Z,92.138672
2018-12-03T00:09:45.831Z,92.034912
2018-12-03T00:09:52.506Z,92.034912
2018-12-03T00:09:59.226Z,91.931152
2018-12-03T00:10:05.969Z,91.827393
2018-12-03T00:10:12.699Z,91.827393
2018-12-03T00:10:19.435Z,91.827393
2018-12-03T00:10:26.762Z,91.729736
2018-12-03T00:10:33.484Z,91.729736
2018-12-03T00:10:40.285Z,91.729736
2018-12-03T00:10:46.960Z,91.729736
2018-12-03T00:10:54.646Z,91.625977
2018-12-03T00:11:01.393Z,91.729736
2018-12-03T00:11:08.159Z,91.729736
2018-12-03T00:11:14.824Z,91.827393
2018-12-03T00:11:21.517Z,91.931152
2018-12-03T00:11:28.248Z,91.931152
2018-12-03T00:11:34.975Z,91.931152
2018-12-03T00:11:41.724Z,91.931152
2018-12-03T00:11:48.448Z,92.034912
2018-12-03T00:11:55.105Z,92.138672
2018-12-03T00:12:01.760Z,92.138672
2018-12-03T00:12:08.495Z,92.138672
2018-12-03T00:12:15.763Z,92.138672
2018-12-03T00:12:22.409Z,92.138672
2018-12-03T00:12:29.097Z,92.034912
2018-12-03T00:12:35.796Z,92.034912
2018-12-03T00:12:42.458Z,91.931152
2018-12-03T00:12:49.212Z,91.827393
2018-12-03T00:12:55.922Z,91.827393
2018-12-03T00:13:02.644Z,91.827393
2018-12-03T00:13:09.401Z,91.729736
2018-12-03T00:13:16.147Z,91.729736
2018-12-03T00:13:22.925Z,91.625977
2018-12-03T00:13:29.690Z,91.625977
2018-12-03T00:13:36.420Z,91.522217
2018-12-03T00:13:43.122Z,91.522217
2018-12-03T00:13:49.796Z,91.522217
2018-12-03T00:13:56.522Z,91.625977
2018-12-03T00:14:03.269Z,91.729736
2018-12-03T00:14:09.940Z,91.729736
2018-12-03T00:14:16.623Z,91.827393
2018-12-03T00:14:23.300Z,91.931152
2018-12-03T00:14:29.988Z,92.034912
2018-12-03T00:14:36.742Z,92.138672
2018-12-03T00:14:43.430Z,92.138672
2018-12-03T00:14:50.137Z,92.138672
2018-12-03T00:14:56.826Z,92.034912
2018-12-03T00:15:03.564Z,92.034912
2018-12-03T00:15:10.245Z,92.034912
2018-12-03T00:15:16.924Z,92.034912
2018-12-03T00:15:23.598Z,92.034912
2018-12-03T00:15:30.318Z,92.034912
2018-12-03T00:15:38.054Z,92.034912
2018-12-03T00:15:44.725Z,92.034912
2018-12-03T00:15:51.432Z,92.034912
2018-12-03T00:15:58.095Z,92.034912
2018-12-03T00:16:04.755Z,92.034912
2018-12-03T00:16:11.418Z,92.034912
2018-12-03T00:16:18.077Z,92.138672
2018-12-03T00:16:25.809Z,92.236328
2018-12-03T00:16:33.495Z,92.236328
2018-12-03T00:16:40.146Z,92.236328
2018-12-03T00:16:47.868Z,92.138672
2018-12-03T00:16:54.594Z,92.138672
2018-12-03T00:17:01.345Z,92.138672
2018-12-03T00:17:08.099Z,92.236328
2018-12-03T00:17:14.784Z,92.236328
2018-12-03T00:17:21.521Z,92.340088
2018-12-03T00:17:28.265Z,92.340088
2018-12-03T00:17:35.025Z,92.340088
2018-12-03T00:17:41.770Z,92.443848
2018-12-03T00:17:48.510Z,92.547607
2018-12-03T00:17:55.211Z,92.547607
2018-12-03T00:18:01.915Z,92.547607
2018-12-03T00:18:08.640Z,92.547607
2018-12-03T00:18:15.326Z,92.547607
2018-12-03T00:18:22.073Z,92.547607
2018-12-03T00:18:28.737Z,92.547607
2018-12-03T00:18:35.441Z,92.547607
2018-12-03T00:18:42.148Z,92.547607
2018-12-03T00:18:48.882Z,92.547607
2018-12-03T00:18:55.613Z,92.645264
2018-12-03T00:19:02.307Z,92.645264
2018-12-03T00:19:09.031Z,92.749023
2018-12-03T00:19:15.697Z,92.749023
2018-12-03T00:19:22.450Z,92.749023
2018-12-03T00:19:30.176Z,92.749023
2018-12-03T00:19:36.826Z,92.749023
2018-12-03T00:19:43.506Z,92.749023
2018-12-03T00:19:50.176Z,92.852783
2018-12-03T00:19:56.843Z,92.956543
2018-12-03T00:20:03.554Z,92.956543
2018-12-03T00:20:10.252Z,93.060303
2018-12-03T00:20:16.932Z,93.060303
2018-12-03T00:20:23.673Z,93.157959
2018-12-03T00:20:30.361Z,93.157959
2018-12-03T00:20:37.118Z,93.060303
2018-12-03T00:20:43.902Z,93.060303
2018-12-03T00:20:50.662Z,93.060303
2018-12-03T00:20:57.363Z,93.060303
2018-12-03T00:21:04.105Z,93.060303
2018-12-03T00:21:10.878Z,93.060303
2018-12-03T00:21:17.670Z,93.261719
2018-12-03T00:21:25.425Z,93.365479
2018-12-03T00:21:33.220Z,93.365479
2018-12-03T00:21:39.919Z,93.469238
2018-12-03T00:21:46.623Z,93.365479
2018-12-03T00:21:53.362Z,93.261719
2018-12-03T00:22:00.065Z,93.261719
2018-12-03T00:22:06.747Z,93.157959
2018-12-03T00:22:13.458Z,93.200684
2018-12-03T00:22:20.209Z,93.157959
2018-12-03T00:22:26.904Z,93.200684
2018-12-03T00:22:33.619Z,93.157959
2018-12-03T00:22:40.328Z,93.200684
2018-12-03T00:22:47.026Z,93.200684
2018-12-03T00:22:53.697Z,93.304443
2018-12-03T00:23:00.446Z,93.408203
2018-12-03T00:23:07.229Z,93.511963
2018-12-03T00:23:13.938Z,93.511963
2018-12-03T00:23:20.670Z,93.511963
2018-12-03T00:23:28.319Z,93.511963
2018-12-03T00:23:35.041Z,93.511963
2018-12-03T00:23:41.760Z,93.511963
2018-12-03T00:23:48.473Z,93.615723
2018-12-03T00:23:55.176Z,93.615723
2018-12-03T00:24:01.912Z,93.713379
2018-12-03T00:24:08.663Z,93.817139
2018-12-03T00:24:15.367Z,93.920898
2018-12-03T00:24:22.094Z,93.920898
2018-12-03T00:24:28.775Z,93.920898
2018-12-03T00:24:35.442Z,93.920898
2018-12-03T00:24:43.146Z,94.024658
2018-12-03T00:24:49.871Z,93.920898
2018-12-03T00:24:56.587Z,93.920898
2018-12-03T00:25:03.337Z,93.817139
2018-12-03T00:25:10.629Z,93.615723
2018-12-03T00:25:17.382Z,93.511963
2018-12-03T00:25:24.079Z,93.304443
2018-12-03T00:25:30.789Z,93.304443
2018-12-03T00:25:38.257Z,93.200684
2018-12-03T00:25:45.005Z,93.103027
2018-12-03T00:25:51.720Z,93.103027
2018-12-03T00:25:58.436Z,93.103027
2018-12-03T00:26:05.140Z,93.103027
2018-12-03T00:26:11.835Z,93.200684
2018-12-03T00:26:18.499Z,93.200684
2018-12-03T00:26:25.273Z,93.304443
2018-12-03T00:26:32.052Z,93.304443
2018-12-03T00:26:38.787Z,93.304443
2018-12-03T00:26:45.545Z,93.304443
2018-12-03T00:26:52.310Z,93.261719
2018-12-03T00:26:59.999Z,93.408203
2018-12-03T00:27:06.671Z,93.511963
2018-12-03T00:27:13.398Z,93.615723
2018-12-03T00:27:20.121Z,93.615723
2018-12-03T00:27:26.816Z,93.713379
2018-12-03T00:27:33.562Z,93.670654
2018-12-03T00:27:40.305Z,93.817139
2018-12-03T00:27:46.992Z,93.878174
2018-12-03T00:27:53.769Z,93.920898
2018-12-03T00:28:01.522Z,93.878174
2018-12-03T00:28:08.285Z,93.774414
2018-12-03T00:28:14.982Z,93.670654
2018-12-03T00:28:22.706Z,93.469238
2018-12-03T00:28:29.414Z,93.365479
2018-12-03T00:28:36.150Z,93.365479
2018-12-03T00:28:42.899Z,93.261719
2018-12-03T00:28:50.609Z,93.157959
2018-12-03T00:28:57.336Z,93.060303
2018-12-03T00:29:04.046Z,93.060303
2018-12-03T00:29:10.757Z,93.060303
2018-12-03T00:29:17.463Z,93.060303
2018-12-03T00:29:24.142Z,93.060303
2018-12-03T00:29:30.860Z,93.060303
2018-12-03T00:29:37.569Z,93.103027
2018-12-03T00:29:44.330Z,93.060303
2018-12-03T00:29:51.091Z,92.956543
2018-12-03T00:29:58.831Z,92.956543
2018-12-03T00:30:05.517Z,92.852783
2018-12-03T00:30:12.208Z,92.852783
2018-12-03T00:30:18.939Z,92.852783
2018-12-03T00:30:25.611Z,92.852783
2018-12-03T00:30:32.328Z,92.852783
2018-12-03T00:30:39.059Z,92.852783
2018-12-03T00:30:45.750Z,92.749023
2018-12-03T00:30:52.471Z,92.749023
2018-12-03T00:31:01.213Z,92.852783
2018-12-03T00:31:07.984Z,92.852783
2018-12-03T00:31:14.772Z,92.852783
2018-12-03T00:31:22.494Z,92.956543
2018-12-03T00:31:29.217Z,93.060303
2018-12-03T00:31:35.957Z,93.157959
2018-12-03T00:31:42.627Z,93.157959
2018-12-03T00:31:49.378Z,93.157959
2018-12-03T00:31:57.133Z,93.157959
2018-12-03T00:32:03.958Z,93.060303
2018-12-03T00:32:10.704Z,92.956543
2018-12-03T00:32:17.423Z,92.956543
2018-12-03T00:32:27.176Z,93.060303
2018-12-03T00:32:33.910Z,93.157959
2018-12-03T00:32:40.612Z,93.157959
2018-12-03T00:32:47.329Z,93.261719
2018-12-03T00:32:54.014Z,93.261719
2018-12-03T00:33:00.715Z,93.261719
2018-12-03T00:33:07.439Z,93.261719
2018-12-03T00:33:14.171Z,93.261719
2018-12-03T00:33:20.925Z,93.157959
2018-12-03T00:33:27.686Z,92.956543
2018-12-03T00:33:34.382Z,92.956543
2018-12-03T00:33:41.094Z,92.852783
2018-12-03T00:33:47.787Z,92.852783
2018-12-03T00:33:54.505Z,92.852783
2018-12-03T00:34:01.247Z,92.852783
2018-12-03T00:34:08.003Z,92.956543
2018-12-03T00:34:14.771Z,92.956543
2018-12-03T00:34:21.447Z,92.956543
2018-12-03T00:34:28.218Z,92.956543
2018-12-03T00:34:34.949Z,92.852783
2018-12-03T00:34:41.714Z,92.852783
2018-12-03T00:34:48.393Z,92.749023
2018-12-03T00:34:55.107Z,92.895508
2018-12-03T00:35:01.787Z,92.956543
2018-12-03T00:35:08.569Z,92.956543
2018-12-03T00:35:15.311Z,93.060303
2018-12-03T00:35:22.053Z,93.157959
2018-12-03T00:35:28.767Z,93.157959
2018-12-03T00:35:35.474Z,93.157959
2018-12-03T00:35:42.182Z,93.261719
2018-12-03T00:35:48.872Z,93.261719
2018-12-03T00:35:55.550Z,93.261719
2018-12-03T00:36:02.308Z,93.157959
2018-12-03T00:36:09.066Z,93.157959
2018-12-03T00:36:15.740Z,93.157959
2018-12-03T00:36:22.472Z,93.157959
2018-12-03T00:36:29.196Z,93.157959
2018-12-03T00:36:35.914Z,93.157959
2018-12-03T00:36:42.621Z,93.060303
2018-12-03T00:36:49.316Z,93.060303
2018-12-03T00:36:56.070Z,93.060303
2018-12-03T00:37:02.790Z,92.956543
2018-12-03T00:37:09.451Z,92.852783
2018-12-03T00:37:16.172Z,92.645264
2018-12-03T00:37:22.880Z,92.547607
2018-12-03T00:37:29.560Z,92.547607
2018-12-03T00:37:36.290Z,92.547607
2018-12-03T00:37:42.971Z,92.547607
2018-12-03T00:37:49.627Z,92.443848
2018-12-03T00:37:56.348Z,92.443848
2018-12-03T00:38:03.052Z,92.443848
2018-12-03T00:38:09.791Z,92.443848
2018-12-03T00:38:16.441Z,92.443848
2018-12-03T00:38:23.136Z,92.443848
2018-12-03T00:38:29.867Z,92.443848
2018-12-03T00:38:36.584Z,92.443848
2018-12-03T00:38:43.280Z,92.443848
2018-12-03T00:38:49.970Z,92.340088
2018-12-03T00:38:57.699Z,92.340088
2018-12-03T00:39:05.496Z,92.443848
2018-12-03T00:39:12.256Z,92.547607
2018-12-03T00:39:19.980Z,92.547607
2018-12-03T00:39:26.676Z,92.547607
2018-12-03T00:39:34.169Z,92.547607
2018-12-03T00:39:40.922Z,92.547607
2018-12-03T00:39:47.757Z,92.443848
2018-12-03T00:39:55.425Z,92.547607
2018-12-03T00:40:02.136Z,92.547607
2018-12-03T00:40:08.830Z,92.443848
2018-12-03T00:40:15.549Z,92.340088
2018-12-03T00:40:22.247Z,92.236328
2018-12-03T00:40:28.950Z,92.236328
2018-12-03T00:40:35.633Z,92.236328
2018-12-03T00:40:42.365Z,92.236328
2018-12-03T00:40:50.074Z,92.236328
2018-12-03T00:40:56.744Z,92.138672
2018-12-03T00:41:03.461Z,92.138672
2018-12-03T00:41:10.199Z,92.138672
2018-12-03T00:41:16.873Z,92.138672
2018-12-03T00:41:23.534Z,92.236328
2018-12-03T00:41:30.289Z,92.340088
2018-12-03T00:41:37.033Z,92.340088
2018-12-03T00:41:43.788Z,92.340088
2018-12-03T00:41:50.456Z,92.236328
2018-12-03T00:41:57.217Z,92.138672
2018-12-03T00:42:03.965Z,92.138672
2018-12-03T00:42:10.716Z,92.138672
2018-12-03T00:42:17.391Z,92.138672
2018-12-03T00:42:24.095Z,92.236328
2018-12-03T00:42:30.761Z,92.236328
2018-12-03T00:42:37.451Z,92.236328
2018-12-03T00:42:44.213Z,92.340088
2018-12-03T00:42:50.868Z,92.340088
2018-12-03T00:42:57.530Z,92.340088
2018-12-03T00:43:04.320Z,92.443848
2018-12-03T00:43:11.053Z,92.443848
2018-12-03T00:43:17.783Z,92.443848
2018-12-03T00:43:24.466Z,92.443848
2018-12-03T00:43:32.141Z,92.443848
2018-12-03T00:43:38.857Z,92.443848
2018-12-03T00:43:45.563Z,92.443848
2018-12-03T00:43:52.207Z,92.340088
2018-12-03T00:43:58.982Z,92.236328
2018-12-03T00:44:05.628Z,92.138672
2018-12-03T00:44:12.328Z,92.138672
2018-12-03T00:44:19.004Z,92.034912
2018-12-03T00:44:25.728Z,92.034912
2018-12-03T00:44:32.458Z,92.034912
2018-12-03T00:44:39.197Z,92.034912
2018-12-03T00:44:45.892Z,92.034912
2018-12-03T00:44:52.626Z,92.034912
2018-12-03T00:44:59.329Z,92.034912
2018-12-03T00:45:06.019Z,92.034912
2018-12-03T00:45:12.716Z,91.931152
2018-12-03T00:45:19.496Z,91.931152
2018-12-03T00:45:27.236Z,91.827393
2018-12-03T00:45:34.006Z,91.827393
2018-12-03T00:45:41.720Z,91.827393
2018-12-03T00:45:48.475Z,91.931152
2018-12-03T00:45:55.228Z,92.034912
2018-12-03T00:46:03.024Z,92.034912
2018-12-03T00:46:09.743Z,92.236328
2018-12-03T00:46:17.421Z,92.138672
2018-12-03T00:46:25.138Z,92.138672
2018-12-03T00:46:31.906Z,92.034912
2018-12-03T00:46:40.511Z,91.931152
2018-12-03T00:46:47.311Z,91.827393
2018-12-03T00:46:54.147Z,91.931152
2018-12-03T00:47:00.950Z,91.827393
2018-12-03T00:47:09.694Z,91.827393
2018-12-03T00:47:16.420Z,91.729736
2018-12-03T00:47:23.181Z,91.729736
2018-12-03T00:47:29.867Z,91.625977
2018-12-03T00:47:36.585Z,91.522217
2018-12-03T00:47:43.351Z,91.522217
2018-12-03T00:47:50.043Z,91.522217
2018-12-03T00:47:56.799Z,91.522217
2018-12-03T00:48:03.520Z,91.522217
2018-12-03T00:48:10.270Z,91.522217
2018-12-03T00:48:17.997Z,91.522217
2018-12-03T00:48:25.636Z,91.522217
2018-12-03T00:48:32.415Z,91.625977
2018-12-03T00:48:39.150Z,91.625977
2018-12-03T00:48:45.917Z,91.522217
2018-12-03T00:48:52.674Z,91.418457
2018-12-03T00:48:59.353Z,91.314697
2018-12-03T00:49:06.119Z,91.314697
2018-12-03T00:49:12.846Z,91.217041
2018-12-03T00:49:19.600Z,91.217041
2018-12-03T00:49:26.299Z,91.113281
2018-12-03T00:49:33.016Z,91.113281
2018-12-03T00:49:39.755Z,91.113281
2018-12-03T00:49:46.523Z,91.217041
2018-12-03T00:49:53.271Z,91.461182
2018-12-03T00:50:00.021Z,91.522217
2018-12-03T00:50:06.746Z,91.522217
2018-12-03T00:50:13.448Z,91.522217
2018-12-03T00:50:20.130Z,91.418457
2018-12-03T00:50:26.867Z,91.418457
2018-12-03T00:50:33.565Z,91.418457
2018-12-03T00:50:40.284Z,91.418457
2018-12-03T00:50:46.988Z,91.461182
2018-12-03T00:50:53.673Z,91.522217
2018-12-03T00:51:00.423Z,91.522217
2018-12-03T00:51:07.092Z,91.522217
2018-12-03T00:51:13.873Z,91.418457
2018-12-03T00:51:20.583Z,91.418457
2018-12-03T00:51:27.316Z,91.357422
2018-12-03T00:51:34.098Z,91.217041
2018-12-03T00:51:40.803Z,91.259766
2018-12-03T00:51:47.551Z,91.314697
2018-12-03T00:51:54.290Z,91.357422
2018-12-03T00:52:01.021Z,91.259766
2018-12-03T00:52:07.713Z,91.113281
2018-12-03T00:52:14.492Z,91.113281
2018-12-03T00:52:21.188Z,91.259766
2018-12-03T00:52:27.892Z,91.357422
2018-12-03T00:52:34.675Z,91.357422
2018-12-03T00:52:41.408Z,91.357422
2018-12-03T00:52:48.123Z,91.357422
2018-12-03T00:52:54.826Z,91.357422
2018-12-03T00:53:01.538Z,91.259766
2018-12-03T00:53:08.310Z,91.259766
2018-12-03T00:53:15.025Z,91.156006
2018-12-03T00:53:21.788Z,91.156006
2018-12-03T00:53:28.498Z,90.948486
2018-12-03T00:53:35.189Z,90.948486
2018-12-03T00:53:41.861Z,90.844727
2018-12-03T00:53:48.516Z,90.844727
2018-12-03T00:53:55.258Z,90.948486
2018-12-03T00:54:02.060Z,91.052246
2018-12-03T00:54:08.782Z,91.259766
2018-12-03T00:54:15.474Z,91.259766
2018-12-03T00:54:22.173Z,91.259766
2018-12-03T00:54:28.938Z,91.259766
2018-12-03T00:54:35.654Z,91.156006
2018-12-03T00:54:42.370Z,91.156006
2018-12-03T00:54:49.137Z,91.156006
2018-12-03T00:54:55.853Z,91.259766
2018-12-03T00:55:02.556Z,91.217041
2018-12-03T00:55:09.306Z,91.357422
2018-12-03T00:55:16.053Z,91.357422
2018-12-03T00:55:22.838Z,91.461182
2018-12-03T00:55:29.584Z,91.461182
2018-12-03T00:55:36.322Z,91.564941
2018-12-03T00:55:43.035Z,91.461182
2018-12-03T00:55:49.768Z,91.357422
2018-12-03T00:55:56.421Z,91.156006
2018-12-03T00:56:03.157Z,91.052246
2018-12-03T00:56:09.894Z,90.844727
2018-12-03T00:56:16.647Z,90.74707
2018-12-03T00:56:23.340Z,90.74707
2018-12-03T00:56:30.038Z,90.600586
2018-12-03T00:56:36.746Z,90.600586
2018-12-03T00:56:43.462Z,90.74707
2018-12-03T00:56:50.162Z,90.643311
2018-12-03T00:56:56.807Z,90.539551
2018-12-03T00:57:03.599Z,90.539551
2018-12-03T00:57:10.273Z,90.496826
2018-12-03T00:57:16.950Z,90.496826
2018-12-03T00:57:23.652Z,90.393066
2018-12-03T00:57:30.411Z,90.393066
2018-12-03T00:57:37.188Z,90.393066
2018-12-03T00:57:43.933Z,90.393066
2018-12-03T00:57:52.645Z,90.393066
2018-12-03T00:57:59.428Z,90.496826
2018-12-03T00:58:06.180Z,90.496826
2018-12-03T00:58:12.928Z,90.600586
2018-12-03T00:58:19.645Z,90.808105
2018-12-03T00:58:27.339Z,90.905762
2018-12-03T00:58:34.063Z,90.905762
2018-12-03T00:58:40.741Z,90.808105
2018-12-03T00:58:47.443Z,90.704346
2018-12-03T00:58:54.136Z,90.704346
2018-12-03T00:59:00.836Z,90.704346
2018-12-03T00:59:07.574Z,90.808105
2018-12-03T00:59:14.283Z,90.808105
2018-12-03T00:59:21.038Z,90.808105
2018-12-03T00:59:27.765Z,90.704346
2018-12-03T00:59:34.503Z,90.496826
2018-12-03T00:59:41.272Z,90.393066
2018-12-03T00:59:47.961Z,90.29541
2018-12-03T00:59:54.667Z,90.19165
2018-12-03T01:00:01.510Z,90.19165
2018-12-03T01:00:09.197Z,90.19165
2018-12-03T01:00:15.950Z,90.19165
2018-12-03T01:00:23.715Z,90.29541
2018-12-03T01:00:30.432Z,90.393066
2018-12-03T01:00:37.198Z,90.393066
2018-12-03T01:00:45.469Z,90.496826
2018-12-03T01:00:53.970Z,90.29541
2018-12-03T01:01:00.749Z,90.19165
2018-12-03T01:01:07.501Z,90.087891
2018-12-03T01:01:14.205Z,90.087891
2018-12-03T01:01:20.904Z,90.087891
2018-12-03T01:01:28.268Z,90.087891
2018-12-03T01:01:35.067Z,89.984131
2018-12-03T01:01:41.786Z,89.886475
2018-12-03T01:01:48.510Z,89.886475
2018-12-03T01:01:55.157Z,89.886475
2018-12-03T01:02:01.857Z,89.886475
2018-12-03T01:02:08.525Z,89.984131
2018-12-03T01:02:15.276Z,89.984131
2018-12-03T01:02:21.966Z,90.087891
2018-12-03T01:02:28.695Z,90.087891
2018-12-03T01:02:35.389Z,89.984131
2018-12-03T01:02:42.082Z,89.886475
2018-12-03T01:02:48.808Z,89.782715
2018-12-03T01:02:55.594Z,89.782715
2018-12-03T01:03:02.290Z,89.782715
2018-12-03T01:03:09.978Z,89.886475
2018-12-03T01:03:16.767Z,89.886475
2018-12-03T01:03:23.420Z,89.678955
2018-12-03T01:03:31.096Z,89.471436
2018-12-03T01:03:37.812Z,89.471436
2018-12-03T01:03:44.504Z,89.575195
2018-12-03T01:03:51.278Z,89.471436
2018-12-03T01:03:57.996Z,89.471436
2018-12-03T01:04:04.651Z,89.373779
2018-12-03T01:04:11.352Z,89.27002
2018-12-03T01:04:18.052Z,89.16626
2018-12-03T01:04:24.746Z,89.0625
2018-12-03T01:04:31.469Z,89.0625
2018-12-03T01:04:38.256Z,89.16626
2018-12-03T01:04:45.004Z,89.0625
2018-12-03T01:04:51.736Z,89.0625
2018-12-03T01:04:59.286Z,89.0625
2018-12-03T01:05:06.046Z,89.0625
2018-12-03T01:05:13.855Z,89.0625
2018-12-03T01:05:20.561Z,89.0625
2018-12-03T01:05:28.245Z,89.16626
2018-12-03T01:05:34.937Z,89.27002
2018-12-03T01:05:41.669Z,89.27002
2018-12-03T01:05:48.366Z,89.27002
2018-12-03T01:05:55.175Z,89.16626
2018-12-03T01:06:01.933Z,89.16626
2018-12-03T01:06:09.696Z,89.0625
2018-12-03T01:06:16.440Z,88.964844
2018-12-03T01:06:23.152Z,88.861084
2018-12-03T01:06:29.789Z,88.653564
2018-12-03T01:06:36.581Z,88.653564
2018-12-03T01:06:45.213Z,88.555908
2018-12-03T01:06:51.964Z,88.555908
2018-12-03T01:06:59.654Z,88.555908
2018-12-03T01:07:06.399Z,88.452148
2018-12-03T01:07:13.054Z,88.452148
2018-12-03T01:07:19.720Z,88.452148
2018-12-03T01:07:26.488Z,88.452148
2018-12-03T01:07:33.255Z,88.555908
2018-12-03T01:07:41.023Z,88.757324
2018-12-03T01:07:47.661Z,88.861084
2018-12-03T01:07:55.089Z,89.0625
2018-12-03T01:08:01.817Z,89.27002
2018-12-03T01:08:10.523Z,89.27002
2018-12-03T01:08:17.276Z,89.373779
2018-12-03T01:08:24.999Z,89.373779
2018-12-03T01:08:32.706Z,89.27002
2018-12-03T01:08:39.456Z,89.27002
2018-12-03T01:08:46.260Z,89.16626
2018-12-03T01:08:52.979Z,88.964844
2018-12-03T01:08:59.757Z,88.964844
2018-12-03T01:09:07.165Z,88.861084
2018-12-03T01:09:13.884Z,88.861084
2018-12-03T01:09:21.568Z,88.757324
2018-12-03T01:09:28.342Z,88.653564
2018-12-03T01:09:34.999Z,88.653564
2018-12-03T01:09:41.739Z,88.555908
2018-12-03T01:09:48.488Z,88.452148
2018-12-03T01:09:55.169Z,88.348389
2018-12-03T01:10:01.860Z,88.452148
2018-12-03T01:10:08.596Z,88.348389
2018-12-03T01:10:16.270Z,88.244629
2018-12-03T01:10:22.960Z,88.043213
2018-12-03T01:10:30.616Z,88.043213
2018-12-03T01:10:37.349Z,88.043213
2018-12-03T01:10:44.066Z,87.835693
2018-12-03T01:10:50.778Z,87.731934
2018-12-03T01:10:57.528Z,87.835693
2018-12-03T01:11:04.258Z,88.043213
2018-12-03T01:11:10.943Z,88.348389
2018-12-03T01:11:17.604Z,88.452148
2018-12-03T01:11:24.375Z,88.452148
2018-12-03T01:11:31.072Z,88.452148
2018-12-03T01:11:37.769Z,88.555908
2018-12-03T01:11:44.483Z,88.653564
2018-12-03T01:11:51.189Z,88.757324
2018-12-03T01:11:57.853Z,88.555908
2018-12-03T01:12:04.581Z,88.452148
2018-12-03T01:12:11.301Z,88.348389
2018-12-03T01:12:18.029Z,88.140869
2018-12-03T01:12:24.894Z,87.939453
2018-12-03T01:12:32.638Z,87.634277
2018-12-03T01:12:39.403Z,87.634277
2018-12-03T01:12:46.086Z,87.731934
2018-12-03T01:12:52.817Z,87.835693
2018-12-03T01:12:59.515Z,87.835693
2018-12-03T01:13:06.201Z,87.835693
2018-12-03T01:13:12.907Z,87.731934
2018-12-03T01:13:19.598Z,87.634277
2018-12-03T01:13:26.288Z,87.731934
2018-12-03T01:13:33.011Z,87.731934
2018-12-03T01:13:39.738Z,87.835693
2018-12-03T01:13:46.483Z,87.835693
2018-12-03T01:13:53.191Z,87.835693
2018-12-03T01:13:59.872Z,87.835693
2018-12-03T01:14:07.559Z,87.731934
2018-12-03T01:14:15.269Z,87.634277
2018-12-03T01:14:22.031Z,87.634277
2018-12-03T01:14:28.771Z,87.634277
2018-12-03T01:14:35.545Z,87.634277
2018-12-03T01:14:42.239Z,87.634277
2018-12-03T01:14:48.941Z,87.731934
2018-12-03T01:14:55.616Z,87.731934
2018-12-03T01:15:02.309Z,87.530518
2018-12-03T01:15:09.005Z,87.322998
2018-12-03T01:15:15.670Z,87.219238
2018-12-03T01:15:22.455Z,87.121582
2018-12-03T01:15:30.219Z,87.121582
2018-12-03T01:15:36.973Z,87.121582
2018-12-03T01:15:43.724Z,87.121582
2018-12-03T01:15:50.507Z,87.121582
2018-12-03T01:15:57.268Z,87.121582
2018-12-03T01:16:04.009Z,87.121582
2018-12-03T01:16:11.533Z,86.810303
2018-12-03T01:16:19.070Z,86.712646
2018-12-03T01:16:25.898Z,86.608887
2018-12-03T01:16:32.584Z,86.712646
2018-12-03T01:16:40.262Z,86.810303
2018-12-03T01:16:46.913Z,86.810303
2018-12-03T01:16:53.621Z,86.914062
2018-12-03T01:17:00.337Z,87.121582
2018-12-03T01:17:07.043Z,87.219238
2018-12-03T01:17:13.769Z,87.219238
2018-12-03T01:17:20.486Z,87.017822
2018-12-03T01:17:27.191Z,86.810303
2018-12-03T01:17:33.914Z,86.608887
2018-12-03T01:17:40.594Z,86.505127
2018-12-03T01:17:47.349Z,86.608887
2018-12-03T01:17:54.093Z,86.810303
2018-12-03T01:18:00.825Z,86.810303
2018-12-03T01:18:07.572Z,86.810303
2018-12-03T01:18:14.260Z,86.914062